createdAt,value
2023-01-22T00:06:38.000Z,998.34
2023-01-22T00:21:14.000Z,998.14
2023-01-22T00:35:51.000Z,998.03
2023-01-22T00:50:28.000Z,998.03
2023-01-22T01:05:04.000Z,998.00
2023-01-22T01:19:33.000Z,998.01
2023-01-22T01:34:05.000Z,997.95
2023-01-22T01:48:41.000Z,997.91
2023-01-22T02:03:18.000Z,997.85
2023-01-22T02:17:53.000Z,997.85
2023-01-22T02:32:30.000Z,997.81
2023-01-22T02:47:04.000Z,997.75
2023-01-22T03:01:32.000Z,997.55
2023-01-22T03:16:07.000Z,997.43
2023-01-22T03:30:44.000Z,997.49
2023-01-22T03:45:16.000Z,997.49
2023-01-22T03:59:45.000Z,997.55
2023-01-22T04:14:22.000Z,997.71
2023-01-22T04:28:57.000Z,997.65
2023-01-22T04:43:35.000Z,997.54
2023-01-22T04:58:08.000Z,997.66
2023-01-22T05:12:45.000Z,997.76
2023-01-22T05:27:21.000Z,997.64
2023-01-22T05:41:57.000Z,997.68
2023-01-22T05:56:33.000Z,997.74
2023-01-22T06:11:10.000Z,997.74
2023-01-22T06:25:48.000Z,997.71
2023-01-22T06:40:26.000Z,997.76
2023-01-22T06:55:02.000Z,997.91
2023-01-22T07:09:36.000Z,998.11
2023-01-22T07:24:10.000Z,998.26
2023-01-22T07:38:46.000Z,998.40
2023-01-22T07:53:25.000Z,998.48
2023-01-22T08:08:03.000Z,998.52
2023-01-22T08:22:40.000Z,998.65
2023-01-22T08:37:16.000Z,998.89
2023-01-22T08:51:54.000Z,998.99
2023-01-22T09:06:32.000Z,999.05
2023-01-22T09:21:10.000Z,998.95
2023-01-22T09:35:47.000Z,998.99
2023-01-22T09:50:25.000Z,999.07
2023-01-22T10:05:03.000Z,999.06
2023-01-22T10:19:39.000Z,999.15
2023-01-22T10:34:16.000Z,999.18
2023-01-22T10:48:55.000Z,999.24
2023-01-22T11:03:33.000Z,999.11
2023-01-22T11:18:12.000Z,999.11
2023-01-22T11:32:51.000Z,998.97
2023-01-22T11:47:30.000Z,999.04
2023-01-22T12:02:06.000Z,998.79
2023-01-22T12:16:44.000Z,998.86
2023-01-22T12:31:19.000Z,998.98
2023-01-22T12:45:55.000Z,998.90
2023-01-22T13:00:32.000Z,998.95
2023-01-22T13:15:02.000Z,998.96
2023-01-22T13:29:40.000Z,998.94
2023-01-22T13:44:15.000Z,999.03
2023-01-22T13:58:52.000Z,999.21
2023-01-22T14:13:30.000Z,999.31
2023-01-22T14:28:03.000Z,999.42
2023-01-22T14:42:39.000Z,999.55
2023-01-22T14:57:17.000Z,999.60
2023-01-22T15:11:48.000Z,999.76
2023-01-22T15:26:25.000Z,999.86
2023-01-22T15:41:03.000Z,999.81
2023-01-22T15:55:40.000Z,999.99
2023-01-22T16:10:15.000Z,1000.06
2023-01-22T16:24:53.000Z,1000.08
2023-01-22T16:39:30.000Z,1000.18
2023-01-22T16:54:08.000Z,1000.27
2023-01-22T17:08:44.000Z,1000.42
2023-01-22T17:23:19.000Z,1000.38
2023-01-22T17:37:57.000Z,1000.61
2023-01-22T17:52:35.000Z,1000.56
2023-01-22T18:07:12.000Z,1000.63
2023-01-22T18:21:50.000Z,1000.83
2023-01-22T18:36:27.000Z,1000.85
2023-01-22T18:51:05.000Z,1001.02
2023-01-22T19:05:43.000Z,1001.03
2023-01-22T19:20:19.000Z,1001.10
2023-01-22T19:34:53.000Z,1001.28
2023-01-22T19:49:28.000Z,1001.40
2023-01-22T20:04:05.000Z,1001.41
2023-01-22T20:18:36.000Z,1001.62
2023-01-22T20:33:09.000Z,1001.68
2023-01-22T20:47:46.000Z,1001.88
2023-01-22T21:02:21.000Z,1001.90
2023-01-22T21:16:59.000Z,1001.82
2023-01-22T21:31:37.000Z,1001.81
2023-01-22T21:46:14.000Z,1001.73
2023-01-22T22:00:52.000Z,1001.71
2023-01-22T22:15:30.000Z,1001.99
2023-01-22T22:30:06.000Z,1001.82
2023-01-22T22:44:43.000Z,1001.95
2023-01-22T22:59:19.000Z,1001.92
2023-01-22T23:13:57.000Z,1002.00
2023-01-22T23:28:33.000Z,1001.89
2023-01-22T23:43:08.000Z,1001.85
2023-01-22T23:57:44.000Z,1001.92
